Skip Navigation Links Skip Navigation Links

Current Weather

Southend-on-Sea, United Kingdom

For information only: do not use for flight planning or navigation.
Latest weather
Observation time Wednesday, November 25, 2020 1:50 AM GMT
Local time Wednesday, November 25, 2020 1:58 AM GMT
Flight conditions Visual Meteorological Conditions
Winds
Wind direction South (180°)
Wind speed 7 mph
Visibility 6.2 mi.
Sky condition
Ceiling unlimited
Sky clear
Temperature 48°F
Dewpoint 46°F
Altimeter 29.85 in.Hg
Derived measurements
Relative humidity 93%
Wind chill 45°F
Density altitude -489 ft.
Remarks
Ceiling and visibility OK.
METAR EGMC 250150Z 18006KT CAVOK 09/08 Q1011

Settings

Location code

InnerDrive.Weather 4.0.6770.0 Release CLR 4.0.30319.42000
Copyright ©2018 Inner Drive Technology. All rights reserved. Portions Copyright ©1986-2018 David Braverman.

Find weather

Site navigation


Skip Navigation Links

Place info

Page info

PayPal - The safer, easier way to pay online!

Return home.

Copyright ©2020 Inner Drive Technology. Purveyors of fine, hand-crafted computer software. Page printed 2020-11-25T01:58:12 UTC.